createdAt,value
2019-04-20T00:01:22.790Z,7.00
2019-04-20T00:03:50.691Z,6.63
2019-04-20T00:06:21.518Z,7.00
2019-04-20T00:08:59.815Z,6.90
2019-04-20T00:11:28.331Z,6.50
2019-04-20T00:14:04.164Z,6.77
2019-04-20T00:16:29.317Z,7.10
2019-04-20T00:19:03.146Z,6.67
2019-04-20T00:21:47.070Z,6.70
2019-04-20T00:24:37.569Z,7.03
2019-04-20T00:27:31.342Z,6.83
2019-04-20T00:30:00.337Z,7.57
2019-04-20T00:32:23.256Z,8.20
2019-04-20T00:34:47.266Z,7.87
2019-04-20T00:37:17.308Z,7.80
2019-04-20T00:39:48.783Z,8.40
2019-04-20T00:42:24.826Z,8.03
2019-04-20T00:45:02.345Z,7.97
2019-04-20T00:47:34.827Z,7.70
2019-04-20T00:50:05.550Z,7.97
2019-04-20T00:52:44.476Z,7.60
2019-04-20T00:55:00.068Z,6.97
2019-04-20T00:57:43.040Z,7.90
2019-04-20T01:00:21.584Z,8.03
2019-04-20T01:02:49.573Z,7.73
2019-04-20T01:05:31.000Z,8.00
2019-04-20T01:08:08.221Z,8.60
2019-04-20T01:10:44.984Z,8.80
2019-04-20T01:13:15.164Z,8.23
2019-04-20T01:15:51.534Z,8.60
2019-04-20T01:18:15.227Z,9.00
2019-04-20T01:20:47.385Z,9.47
2019-04-20T01:23:21.304Z,9.07
2019-04-20T01:25:56.877Z,8.87
2019-04-20T01:28:38.410Z,8.03
2019-04-20T01:31:06.517Z,8.27
2019-04-20T01:33:40.412Z,8.57
2019-04-20T01:36:19.863Z,8.00
2019-04-20T01:38:44.648Z,7.93
2019-04-20T01:41:03.353Z,8.53
2019-04-20T01:43:35.339Z,8.13
2019-04-20T01:46:12.056Z,8.63
2019-04-20T01:48:41.228Z,8.00
2019-04-20T01:51:17.520Z,8.63
2019-04-20T01:54:06.535Z,9.63
2019-04-20T01:56:37.305Z,11.00
2019-04-20T01:59:23.028Z,9.10
2019-04-20T02:02:08.039Z,8.50
2019-04-20T02:04:43.120Z,8.27
2019-04-20T02:07:10.693Z,8.30
2019-04-20T02:09:47.492Z,8.67
2019-04-20T02:12:20.147Z,8.13
2019-04-20T02:14:52.222Z,7.80
2019-04-20T02:17:43.527Z,8.00
2019-04-20T02:20:53.246Z,8.53
2019-04-20T02:23:17.595Z,8.13
2019-04-20T02:25:35.845Z,8.20
2019-04-20T02:28:24.275Z,9.67
2019-04-20T02:31:23.082Z,8.10
2019-04-20T02:33:54.291Z,8.80
2019-04-20T02:36:51.142Z,8.30
2019-04-20T02:42:07.924Z,8.60
2019-04-20T02:44:40.401Z,8.53
2019-04-20T02:47:13.989Z,8.63
2019-04-20T02:49:40.491Z,8.77
2019-04-20T02:54:46.736Z,8.23
2019-04-20T02:57:20.608Z,7.83
2019-04-20T03:00:05.688Z,8.73
2019-04-20T03:02:10.223Z,8.67
2019-04-20T03:04:31.713Z,8.53
2019-04-20T03:07:11.895Z,9.40
2019-04-20T03:09:51.518Z,8.60
2019-04-20T03:12:29.187Z,9.00
2019-04-20T03:14:52.535Z,9.00
2019-04-20T03:17:40.958Z,8.40
2019-04-20T03:20:06.236Z,9.50
2019-04-20T03:23:17.499Z,9.30
2019-04-20T03:25:55.250Z,8.97
2019-04-20T03:28:28.036Z,9.35
2019-04-20T03:33:51.490Z,8.93
2019-04-20T03:36:16.225Z,9.20
2019-04-20T03:38:38.311Z,8.90
2019-04-20T03:40:59.542Z,9.60
2019-04-20T03:43:20.161Z,9.00
2019-04-20T03:45:57.718Z,8.87
2019-04-20T03:48:41.016Z,9.30
2019-04-20T03:51:18.087Z,9.00
2019-04-20T03:54:05.158Z,8.27
2019-04-20T03:56:57.090Z,8.80
2019-04-20T03:59:39.163Z,9.53
2019-04-20T04:05:04.387Z,8.80
2019-04-20T04:07:30.443Z,8.90
2019-04-20T04:10:09.798Z,9.23
2019-04-20T04:13:07.155Z,9.40
2019-04-20T04:15:46.756Z,8.00
2019-04-20T04:18:17.832Z,8.50
2019-04-20T04:20:51.284Z,9.60
2019-04-20T04:23:35.626Z,9.00
2019-04-20T04:26:22.104Z,9.00
2019-04-20T04:28:37.282Z,9.33
2019-04-20T04:31:12.119Z,9.07
2019-04-20T04:34:02.387Z,9.20
2019-04-20T04:36:30.128Z,8.80
2019-04-20T04:39:14.997Z,9.10
2019-04-20T04:41:52.302Z,9.87
2019-04-20T04:44:22.615Z,9.40
2019-04-20T04:46:44.611Z,9.77
2019-04-20T04:49:20.137Z,9.03
2019-04-20T04:51:53.505Z,9.43
2019-04-20T04:54:40.109Z,9.73
2019-04-20T04:57:07.171Z,11.00
2019-04-20T04:59:38.427Z,10.57
2019-04-20T05:02:09.685Z,9.35
2019-04-20T05:05:41.272Z,9.63
2019-04-20T05:08:02.871Z,11.00
2019-04-20T05:10:24.681Z,9.70
2019-04-20T05:12:54.860Z,10.60
2019-04-20T05:15:37.382Z,10.43
2019-04-20T05:18:18.324Z,10.87
2019-04-20T05:20:55.780Z,9.90
2019-04-20T05:23:38.800Z,9.38
2019-04-20T05:26:30.063Z,9.70
2019-04-20T05:29:00.702Z,9.70
2019-04-20T05:31:31.002Z,9.57
2019-04-20T05:34:20.572Z,9.73
2019-04-20T05:36:51.809Z,8.73
2019-04-20T05:39:26.870Z,9.37
2019-04-20T05:41:53.178Z,8.77
2019-04-20T05:44:42.807Z,9.53
2019-04-20T05:47:11.231Z,9.97
2019-04-20T05:49:40.215Z,9.93
2019-04-20T05:52:24.402Z,9.80
2019-04-20T05:55:04.387Z,10.00
2019-04-20T05:57:41.941Z,10.17
2019-04-20T06:00:24.694Z,8.17
2019-04-20T06:02:44.105Z,9.93
2019-04-20T06:05:23.971Z,9.93
2019-04-20T06:07:53.485Z,10.83
2019-04-20T06:10:27.531Z,8.43
2019-04-20T06:13:04.745Z,10.07
2019-04-20T06:15:53.868Z,8.80
2019-04-20T06:18:26.915Z,10.50
2019-04-20T06:21:17.263Z,8.63
2019-04-20T06:23:56.394Z,10.20
2019-04-20T06:26:44.213Z,8.53
2019-04-20T06:29:03.140Z,8.23
2019-04-20T06:31:36.107Z,8.93
2019-04-20T06:34:35.043Z,8.50
2019-04-20T06:37:01.042Z,8.40
2019-04-20T06:40:29.347Z,8.50
2019-04-20T06:42:22.529Z,8.00
2019-04-20T06:45:04.234Z,8.93
2019-04-20T06:47:38.843Z,7.93
2019-04-20T06:50:14.191Z,9.33
2019-04-20T06:53:32.447Z,8.70
2019-04-20T06:56:07.339Z,8.53
2019-04-20T06:58:58.937Z,8.35
2019-04-20T07:01:37.377Z,9.10
2019-04-20T07:04:38.325Z,8.77
2019-04-20T07:07:05.298Z,8.30
2019-04-20T07:09:42.093Z,7.70
2019-04-20T07:11:56.822Z,6.87
2019-04-20T07:14:31.873Z,9.30
2019-04-20T07:17:46.011Z,8.90
2019-04-20T07:20:21.308Z,8.03
2019-04-20T07:23:21.378Z,7.60
2019-04-20T07:26:13.796Z,8.40
2019-04-20T07:28:31.299Z,7.95
2019-04-20T07:31:01.824Z,7.40
2019-04-20T07:33:37.244Z,8.77
2019-04-20T07:36:10.899Z,7.30
2019-04-20T07:38:39.939Z,8.60
2019-04-20T07:41:40.229Z,9.30
2019-04-20T07:49:41.612Z,7.50
2019-04-20T07:51:55.468Z,8.73
2019-04-20T07:55:22.550Z,8.13
2019-04-20T07:57:37.699Z,8.80
2019-04-20T08:00:59.244Z,10.23
2019-04-20T08:03:39.473Z,7.00
2019-04-20T08:06:11.521Z,7.40
2019-04-20T08:09:16.093Z,6.97
2019-04-20T08:12:31.544Z,6.20
2019-04-20T08:15:04.959Z,6.27
2019-04-20T08:17:48.364Z,6.13
2019-04-20T08:20:35.537Z,6.07
2019-04-20T08:23:05.078Z,6.20
2019-04-20T08:26:10.998Z,5.87
2019-04-20T08:29:25.447Z,5.67
2019-04-20T08:32:17.938Z,5.60
2019-04-20T08:34:54.344Z,5.20
2019-04-20T08:37:26.588Z,6.07
2019-04-20T08:40:02.997Z,5.60
2019-04-20T08:42:40.310Z,5.30
2019-04-20T08:45:23.710Z,5.13
2019-04-20T08:48:18.868Z,6.27
2019-04-20T08:51:07.329Z,5.50
2019-04-20T08:53:39.381Z,6.00
2019-04-20T08:56:05.920Z,5.83
2019-04-20T08:58:22.556Z,6.00
2019-04-20T09:00:58.682Z,5.37
2019-04-20T09:03:56.466Z,5.33
2019-04-20T09:06:34.718Z,5.53
2019-04-20T09:09:11.762Z,5.43
2019-04-20T09:11:49.135Z,6.17
2019-04-20T09:14:16.334Z,5.70
2019-04-20T09:16:57.017Z,5.20
2019-04-20T09:19:36.759Z,5.60
2019-04-20T09:22:25.516Z,5.47
2019-04-20T09:25:42.839Z,5.00
2019-04-20T09:27:48.776Z,6.20
2019-04-20T09:30:43.815Z,5.53
2019-04-20T09:33:43.888Z,6.00
2019-04-20T09:36:22.570Z,5.93
2019-04-20T09:39:21.616Z,6.80
2019-04-20T09:42:04.849Z,6.20
2019-04-20T09:44:55.996Z,5.70
2019-04-20T09:47:32.602Z,5.30
2019-04-20T09:53:10.165Z,6.00
2019-04-20T09:55:36.328Z,6.00
2019-04-20T09:58:12.644Z,6.10
2019-04-20T10:01:13.524Z,6.33
2019-04-20T10:03:31.068Z,6.90
2019-04-20T10:06:24.723Z,6.80
2019-04-20T10:08:56.336Z,6.30
2019-04-20T10:11:27.521Z,6.60
2019-04-20T10:13:58.528Z,7.07
2019-04-20T10:16:47.685Z,7.00
2019-04-20T10:19:30.011Z,5.80
2019-04-20T10:21:54.891Z,7.70
2019-04-20T10:24:26.584Z,7.57
2019-04-20T10:26:58.900Z,7.17
2019-04-20T10:29:31.302Z,7.37
2019-04-20T10:32:25.092Z,6.60
2019-04-20T10:34:52.833Z,6.63
2019-04-20T10:37:27.432Z,5.57
2019-04-20T10:39:58.536Z,6.00
2019-04-20T10:42:30.127Z,6.70
2019-04-20T10:45:17.172Z,6.80
2019-04-20T10:47:50.678Z,5.70
2019-04-20T10:50:22.977Z,6.62
2019-04-20T10:52:57.066Z,5.90
2019-04-20T10:55:29.372Z,5.67
2019-04-20T10:57:59.809Z,5.87
2019-04-20T11:00:41.975Z,6.10
2019-04-20T11:03:15.760Z,6.55
2019-04-20T11:05:48.941Z,6.23
2019-04-20T11:08:24.405Z,7.33
2019-04-20T11:11:10.865Z,6.70
2019-04-20T11:13:35.329Z,6.03
2019-04-20T11:16:24.758Z,5.80
2019-04-20T11:19:13.886Z,5.80
2019-04-20T11:22:04.212Z,5.37
2019-04-20T11:24:50.386Z,6.27
2019-04-20T11:27:20.651Z,5.40
2019-04-20T11:29:51.909Z,5.30
2019-04-20T11:32:24.183Z,5.30
2019-04-20T11:34:56.469Z,5.67
2019-04-20T11:37:27.324Z,6.27
2019-04-20T11:40:01.361Z,6.00
2019-04-20T11:42:53.292Z,6.47
2019-04-20T11:45:42.796Z,5.70
2019-04-20T11:48:21.286Z,6.63
2019-04-20T11:50:51.760Z,6.57
2019-04-20T11:53:25.185Z,6.87
2019-04-20T11:55:58.566Z,6.43
2019-04-20T11:58:44.893Z,8.10
2019-04-20T12:01:56.499Z,6.60
2019-04-20T12:04:38.151Z,7.50
2019-04-20T12:07:19.008Z,7.13
2019-04-20T12:09:51.497Z,6.90
2019-04-20T12:12:32.994Z,6.33
2019-04-20T12:15:14.767Z,7.57
2019-04-20T12:17:45.477Z,7.50
2019-04-20T12:20:22.819Z,6.12
2019-04-20T12:22:58.363Z,6.87
2019-04-20T12:25:37.897Z,7.60
2019-04-20T12:28:11.593Z,6.45
2019-04-20T12:30:42.031Z,6.50
2019-04-20T12:33:32.592Z,7.87
2019-04-20T12:36:12.578Z,8.40
2019-04-20T12:38:46.130Z,8.03
2019-04-20T12:41:31.132Z,7.90
2019-04-20T12:43:57.082Z,7.60
2019-04-20T12:46:28.243Z,7.67
2019-04-20T12:48:59.698Z,6.53
2019-04-20T12:51:36.664Z,7.40
2019-04-20T12:54:11.118Z,7.20
2019-04-20T12:56:42.501Z,7.07
2019-04-20T12:59:13.819Z,6.83
2019-04-20T13:02:03.050Z,6.67
2019-04-20T13:04:33.705Z,7.33
2019-04-20T13:07:22.757Z,7.20
2019-04-20T13:10:02.683Z,6.67
2019-04-20T13:12:56.391Z,8.10
2019-04-20T13:15:36.455Z,7.20
2019-04-20T13:18:07.489Z,6.57
2019-04-20T13:20:37.697Z,7.00
2019-04-20T13:23:09.251Z,6.40
2019-04-20T13:25:43.297Z,6.90
2019-04-20T13:28:19.211Z,6.90
2019-04-20T13:30:50.115Z,7.00
2019-04-20T13:33:20.807Z,6.80
2019-04-20T13:35:52.335Z,7.30
2019-04-20T13:38:22.796Z,7.00
2019-04-20T13:40:53.624Z,6.83
2019-04-20T13:43:24.194Z,6.67
2019-04-20T13:45:55.126Z,6.37
2019-04-20T13:48:26.664Z,6.43
2019-04-20T13:51:00.206Z,6.47
2019-04-20T13:53:37.119Z,6.10
2019-04-20T13:56:07.858Z,5.97
2019-04-20T13:58:56.175Z,6.33
2019-04-20T14:01:46.640Z,7.20
2019-04-20T14:04:23.124Z,6.67
2019-04-20T14:06:55.221Z,6.40
2019-04-20T14:09:25.675Z,6.60
2019-04-20T14:12:04.735Z,5.73
2019-04-20T14:14:30.932Z,5.27
2019-04-20T14:17:01.368Z,6.40
2019-04-20T14:19:31.515Z,5.93
2019-04-20T14:22:02.141Z,6.10
2019-04-20T14:24:33.168Z,6.03
2019-04-20T14:27:13.025Z,5.90
2019-04-20T14:29:43.458Z,6.03
2019-04-20T14:32:18.692Z,5.90
2019-04-20T14:34:49.049Z,5.73
2019-04-20T14:37:27.132Z,6.00
2019-04-20T14:39:58.504Z,5.90
2019-04-20T14:42:36.463Z,5.63
2019-04-20T14:45:01.980Z,5.80
2019-04-20T14:47:33.949Z,6.07
2019-04-20T14:50:07.520Z,6.08
2019-04-20T14:52:37.909Z,5.97
2019-04-20T14:55:08.436Z,5.50
2019-04-20T14:57:39.446Z,5.87
2019-04-20T15:00:32.222Z,5.83
2019-04-20T15:03:21.813Z,5.63
2019-04-20T15:05:55.762Z,6.67
2019-04-20T15:08:26.955Z,5.50
2019-04-20T15:10:58.799Z,6.03
2019-04-20T15:13:28.993Z,5.50
2019-04-20T15:15:59.200Z,5.53
2019-04-20T15:18:39.789Z,5.70
2019-04-20T15:21:11.491Z,5.67
2019-04-20T15:23:41.691Z,5.67
2019-04-20T15:26:12.794Z,5.30
2019-04-20T15:28:44.122Z,6.43
2019-04-20T15:31:14.408Z,5.20
2019-04-20T15:33:45.287Z,6.30
2019-04-20T15:36:18.015Z,5.47
2019-04-20T15:38:49.620Z,6.10
2019-04-20T15:41:20.808Z,5.57
2019-04-20T15:43:53.234Z,6.03
2019-04-20T15:46:23.885Z,6.60
2019-04-20T15:48:54.041Z,5.83
2019-04-20T15:51:25.758Z,6.73
2019-04-20T15:53:57.649Z,5.90
2019-04-20T15:56:29.100Z,5.80
2019-04-20T15:59:02.145Z,5.93
2019-04-20T16:01:36.653Z,5.80
2019-04-20T16:04:21.601Z,6.97
2019-04-20T16:06:45.270Z,5.67
2019-04-20T16:09:15.908Z,6.10
2019-04-20T16:11:46.796Z,6.07
2019-04-20T16:14:17.510Z,5.60
2019-04-20T16:16:48.590Z,6.40
2019-04-20T16:19:34.569Z,6.50
2019-04-20T16:22:01.767Z,6.60
2019-04-20T16:24:37.625Z,6.73
2019-04-20T16:27:16.046Z,6.47
2019-04-20T16:29:47.391Z,6.00
2019-04-20T16:32:18.479Z,6.30
2019-04-20T16:34:58.268Z,6.07
2019-04-20T16:37:28.982Z,5.67
2019-04-20T16:39:59.129Z,6.07
2019-04-20T16:42:32.085Z,6.23
2019-04-20T16:45:03.272Z,5.37
2019-04-20T16:47:37.266Z,5.77
2019-04-20T16:50:08.759Z,6.03
2019-04-20T16:52:39.207Z,5.93
2019-04-20T16:55:11.287Z,5.50
2019-04-20T16:57:41.783Z,6.07
2019-04-20T17:00:13.878Z,5.43
2019-04-20T17:02:44.579Z,5.27
2019-04-20T17:05:18.947Z,5.80
2019-04-20T17:07:50.962Z,6.27
2019-04-20T17:10:23.722Z,5.80
2019-04-20T17:12:55.636Z,5.53
2019-04-20T17:15:30.287Z,5.20
2019-04-20T17:18:01.447Z,5.90
2019-04-20T17:20:40.988Z,5.27
2019-04-20T17:23:10.826Z,5.20
2019-04-20T17:25:41.938Z,5.83
2019-04-20T17:28:33.078Z,5.77
2019-04-20T17:31:22.345Z,5.47
2019-04-20T17:34:06.602Z,5.10
2019-04-20T17:36:32.696Z,5.17
2019-04-20T17:39:06.725Z,4.77
2019-04-20T17:41:56.007Z,5.40
2019-04-20T17:44:27.897Z,5.23
2019-04-20T17:46:48.000Z,5.27
2019-04-20T17:49:28.296Z,5.20
2019-04-20T17:52:05.170Z,5.50
2019-04-20T17:54:33.483Z,5.45
2019-04-20T17:57:07.829Z,5.17
2019-04-20T17:59:40.054Z,5.30
2019-04-20T18:02:53.513Z,5.60
2019-04-20T18:05:39.078Z,5.57
2019-04-20T18:08:10.321Z,5.53
2019-04-20T18:10:35.332Z,4.92
2019-04-20T18:12:56.479Z,5.10
2019-04-20T18:15:40.793Z,5.23
2019-04-20T18:18:42.225Z,5.10
2019-04-20T18:21:21.436Z,5.20
2019-04-20T18:23:54.130Z,6.83
2019-04-20T18:26:45.337Z,5.67
2019-04-20T18:29:16.580Z,6.23
2019-04-20T18:31:57.744Z,6.30
2019-04-20T18:34:53.022Z,6.90
2019-04-20T18:37:21.485Z,6.90
2019-04-20T18:39:58.902Z,6.60
2019-04-20T18:42:32.925Z,6.70
2019-04-20T18:45:28.351Z,6.80
2019-04-20T18:48:04.391Z,7.20
2019-04-20T18:50:22.371Z,7.43
2019-04-20T18:52:47.672Z,8.30
2019-04-20T18:55:27.491Z,9.40
2019-04-20T18:57:50.914Z,10.47
2019-04-20T19:00:28.746Z,12.03
2019-04-20T19:02:57.676Z,11.00
2019-04-20T19:05:27.548Z,11.90
2019-04-20T19:08:03.378Z,14.20
2019-04-20T19:10:35.986Z,12.63
2019-04-20T19:13:07.993Z,14.13
2019-04-20T19:16:17.563Z,14.50
2019-04-20T19:18:57.439Z,15.40
2019-04-20T19:21:15.164Z,14.20
2019-04-20T19:23:55.945Z,14.60
2019-04-20T19:26:21.262Z,13.20
2019-04-20T19:28:54.458Z,12.37
2019-04-20T19:31:41.406Z,12.10
2019-04-20T19:34:11.850Z,10.23
2019-04-20T19:36:34.768Z,10.10
2019-04-20T19:39:17.276Z,6.43
2019-04-20T19:41:41.792Z,6.20
2019-04-20T19:44:13.081Z,6.87
2019-04-20T19:46:53.696Z,7.00
2019-04-20T19:49:19.265Z,6.60
2019-04-20T19:52:12.166Z,6.07
2019-04-20T19:54:39.016Z,6.53
2019-04-20T19:56:58.786Z,6.50
2019-04-20T19:59:23.325Z,6.30
2019-04-20T20:01:47.671Z,6.87
2019-04-20T20:04:19.582Z,6.23
2019-04-20T20:06:56.206Z,6.47
2019-04-20T20:09:22.005Z,6.37
2019-04-20T20:11:56.121Z,6.73
2019-04-20T20:14:30.619Z,9.37
2019-04-20T20:17:13.998Z,7.40
2019-04-20T20:20:02.736Z,6.70
2019-04-20T20:22:17.429Z,6.10
2019-04-20T20:24:38.894Z,7.10
2019-04-20T20:27:20.675Z,8.10
2019-04-20T20:29:54.225Z,7.67
2019-04-20T20:32:22.560Z,8.90
2019-04-20T20:34:50.865Z,8.07
2019-04-20T20:37:29.602Z,8.40
2019-04-20T20:39:59.704Z,8.13
2019-04-20T20:42:33.007Z,8.70
2019-04-20T20:45:07.788Z,7.73
2019-04-20T20:47:47.411Z,7.67
2019-04-20T20:50:27.206Z,7.30
2019-04-20T20:52:48.019Z,6.43
2019-04-20T20:55:15.748Z,7.10
2019-04-20T20:57:44.506Z,6.80
2019-04-20T21:00:22.679Z,6.67
2019-04-20T21:02:47.292Z,6.40
2019-04-20T21:05:13.633Z,6.00
2019-04-20T21:07:45.105Z,7.17
2019-04-20T21:10:25.667Z,6.40
2019-04-20T21:12:54.092Z,7.10
2019-04-20T21:15:22.770Z,6.70
2019-04-20T21:18:15.925Z,6.47
2019-04-20T21:20:44.429Z,7.07
2019-04-20T21:23:12.104Z,6.60
2019-04-20T21:25:37.666Z,7.07
2019-04-20T21:28:04.811Z,7.37
2019-04-20T21:30:42.802Z,8.70
2019-04-20T21:33:09.771Z,8.83
2019-04-20T21:35:43.670Z,8.00
2019-04-20T21:38:15.133Z,7.87
2019-04-20T21:40:47.201Z,8.77
2019-04-20T21:43:16.291Z,7.77
2019-04-20T21:45:52.470Z,7.90
2019-04-20T21:48:39.018Z,7.77
2019-04-20T21:51:11.583Z,7.37
2019-04-20T21:53:26.620Z,7.30
2019-04-20T21:55:55.685Z,8.83
2019-04-20T21:58:32.430Z,8.43
2019-04-20T22:01:08.041Z,7.10
2019-04-20T22:03:30.256Z,6.57
2019-04-20T22:06:04.725Z,6.17
2019-04-20T22:08:39.518Z,6.80
2019-04-20T22:11:08.177Z,7.43
2019-04-20T22:13:42.081Z,8.00
2019-04-20T22:16:13.164Z,6.83
2019-04-20T22:18:54.117Z,7.27
2019-04-20T22:21:22.554Z,7.20
2019-04-20T22:24:05.638Z,7.40
2019-04-20T22:26:30.050Z,7.20
2019-04-20T22:28:52.175Z,7.10
2019-04-20T22:31:22.729Z,7.33
2019-04-20T22:33:54.156Z,7.80
2019-04-20T22:36:34.365Z,7.77
2019-04-20T22:39:15.289Z,7.90
2019-04-20T22:42:02.411Z,7.30
2019-04-20T22:44:28.320Z,7.43
2019-04-20T22:46:58.506Z,8.47
2019-04-20T22:49:44.295Z,7.80
2019-04-20T22:52:18.127Z,7.23
2019-04-20T22:54:48.967Z,7.60
2019-04-20T22:57:17.681Z,7.45
2019-04-20T22:59:52.335Z,8.10
2019-04-20T23:02:11.742Z,6.63
2019-04-20T23:04:42.769Z,7.63
2019-04-20T23:07:14.626Z,6.40
2019-04-20T23:09:53.918Z,6.80
2019-04-20T23:12:22.721Z,6.53
2019-04-20T23:14:52.403Z,6.70
2019-04-20T23:17:30.152Z,7.33
2019-04-20T23:19:58.246Z,7.23
2019-04-20T23:22:33.650Z,7.43
2019-04-20T23:24:59.479Z,7.90
2019-04-20T23:27:32.074Z,6.80
2019-04-20T23:30:10.955Z,7.20
2019-04-20T23:32:35.746Z,6.70
2019-04-20T23:35:13.044Z,6.97
2019-04-20T23:37:40.580Z,6.77
2019-04-20T23:40:14.857Z,7.73
2019-04-20T23:42:51.754Z,6.50
2019-04-20T23:45:52.853Z,6.83
2019-04-20T23:48:43.007Z,6.80
2019-04-20T23:51:36.984Z,6.10
2019-04-20T23:53:56.804Z,7.00
2019-04-20T23:56:20.394Z,6.40
2019-04-20T23:58:53.423Z,5.97
